sensor_id;sensor_type;location;lat;lon;timestamp;P1;durP1;ratioP1;P2;durP2;ratioP2
24681;SDS011;12802;53.390;-2.328;2022-07-18T00:00:06;1.77;;;1.02;;
24681;SDS011;12802;53.390;-2.328;2022-07-18T00:02:33;4.93;;;1.38;;
24681;SDS011;12802;53.390;-2.328;2022-07-18T00:04:59;3.55;;;1.00;;
24681;SDS011;12802;53.390;-2.328;2022-07-18T00:07:25;1.85;;;1.35;;
24681;SDS011;12802;53.390;-2.328;2022-07-18T00:09:51;3.53;;;1.30;;
24681;SDS011;12802;53.390;-2.328;2022-07-18T00:12:17;3.35;;;1.10;;
24681;SDS011;12802;53.390;-2.328;2022-07-18T00:14:43;2.85;;;1.20;;
24681;SDS011;12802;53.390;-2.328;2022-07-18T00:17:09;1.40;;;0.85;;
24681;SDS011;12802;53.390;-2.328;2022-07-18T00:19:36;5.82;;;1.58;;
24681;SDS011;12802;53.390;-2.328;2022-07-18T00:22:02;3.47;;;1.10;;
24681;SDS011;12802;53.390;-2.328;2022-07-18T00:24:29;3.25;;;0.98;;
24681;SDS011;12802;53.390;-2.328;2022-07-18T00:26:57;8.32;;;1.52;;
24681;SDS011;12802;53.390;-2.328;2022-07-18T00:29:24;2.22;;;0.85;;
24681;SDS011;12802;53.390;-2.328;2022-07-18T00:31:50;1.70;;;1.23;;
24681;SDS011;12802;53.390;-2.328;2022-07-18T00:34:16;1.63;;;0.95;;
24681;SDS011;12802;53.390;-2.328;2022-07-18T00:36:43;2.58;;;0.95;;
24681;SDS011;12802;53.390;-2.328;2022-07-18T00:39:09;2.20;;;0.98;;
24681;SDS011;12802;53.390;-2.328;2022-07-18T00:41:35;2.40;;;1.25;;
24681;SDS011;12802;53.390;-2.328;2022-07-18T00:44:00;3.45;;;1.10;;
24681;SDS011;12802;53.390;-2.328;2022-07-18T00:46:27;3.35;;;1.20;;
24681;SDS011;12802;53.390;-2.328;2022-07-18T00:48:53;1.58;;;1.02;;
24681;SDS011;12802;53.390;-2.328;2022-07-18T00:51:20;4.40;;;1.52;;
24681;SDS011;12802;53.390;-2.328;2022-07-18T00:53:47;1.88;;;1.15;;
24681;SDS011;12802;53.390;-2.328;2022-07-18T00:56:18;3.50;;;1.20;;
24681;SDS011;12802;53.390;-2.328;2022-07-18T00:58:45;1.35;;;0.98;;
24681;SDS011;12802;53.390;-2.328;2022-07-18T01:01:11;9.10;;;1.75;;
24681;SDS011;12802;53.390;-2.328;2022-07-18T01:03:56;3.78;;;1.48;;
24681;SDS011;12802;53.390;-2.328;2022-07-18T01:06:22;4.05;;;1.85;;
24681;SDS011;12802;53.390;-2.328;2022-07-18T01:08:48;6.75;;;2.20;;
24681;SDS011;12802;53.390;-2.328;2022-07-18T01:11:14;7.45;;;2.10;;
24681;SDS011;12802;53.390;-2.328;2022-07-18T01:13:40;4.28;;;1.80;;
24681;SDS011;12802;53.390;-2.328;2022-07-18T01:16:06;3.88;;;2.10;;
24681;SDS011;12802;53.390;-2.328;2022-07-18T01:18:32;2.72;;;1.38;;
24681;SDS011;12802;53.390;-2.328;2022-07-18T01:20:58;2.90;;;1.60;;
24681;SDS011;12802;53.390;-2.328;2022-07-18T01:23:25;4.82;;;2.03;;
24681;SDS011;12802;53.390;-2.328;2022-07-18T01:25:50;3.00;;;1.67;;
24681;SDS011;12802;53.390;-2.328;2022-07-18T01:28:16;3.55;;;1.63;;
24681;SDS011;12802;53.390;-2.328;2022-07-18T01:30:42;2.25;;;1.25;;
24681;SDS011;12802;53.390;-2.328;2022-07-18T01:33:08;3.42;;;1.70;;
24681;SDS011;12802;53.390;-2.328;2022-07-18T01:35:34;5.40;;;1.58;;
24681;SDS011;12802;53.390;-2.328;2022-07-18T01:38:00;4.93;;;1.77;;
24681;SDS011;12802;53.390;-2.328;2022-07-18T01:40:28;2.92;;;0.98;;
24681;SDS011;12802;53.390;-2.328;2022-07-18T01:42:54;2.65;;;1.48;;
24681;SDS011;12802;53.390;-2.328;2022-07-18T01:45:20;2.28;;;1.27;;
24681;SDS011;12802;53.390;-2.328;2022-07-18T01:47:46;5.03;;;1.75;;
24681;SDS011;12802;53.390;-2.328;2022-07-18T01:50:13;2.30;;;1.40;;
24681;SDS011;12802;53.390;-2.328;2022-07-18T01:52:39;2.08;;;0.85;;
24681;SDS011;12802;53.390;-2.328;2022-07-18T01:55:06;5.25;;;1.83;;
24681;SDS011;12802;53.390;-2.328;2022-07-18T01:57:33;4.13;;;1.55;;
24681;SDS011;12802;53.390;-2.328;2022-07-18T01:59:59;1.27;;;0.88;;
24681;SDS011;12802;53.390;-2.328;2022-07-18T02:02:25;2.85;;;1.25;;
24681;SDS011;12802;53.390;-2.328;2022-07-18T02:04:51;9.23;;;1.52;;
24681;SDS011;12802;53.390;-2.328;2022-07-18T02:07:31;2.45;;;1.38;;
24681;SDS011;12802;53.390;-2.328;2022-07-18T02:09:59;3.35;;;1.23;;
24681;SDS011;12802;53.390;-2.328;2022-07-18T02:12:26;2.63;;;1.38;;
24681;SDS011;12802;53.390;-2.328;2022-07-18T02:14:51;2.40;;;1.05;;
24681;SDS011;12802;53.390;-2.328;2022-07-18T02:17:18;3.25;;;1.60;;
24681;SDS011;12802;53.390;-2.328;2022-07-18T02:19:44;4.10;;;1.27;;
24681;SDS011;12802;53.390;-2.328;2022-07-18T02:22:10;3.13;;;1.65;;
24681;SDS011;12802;53.390;-2.328;2022-07-18T02:24:36;3.33;;;1.00;;
24681;SDS011;12802;53.390;-2.328;2022-07-18T02:27:02;2.40;;;1.05;;
24681;SDS011;12802;53.390;-2.328;2022-07-18T02:29:29;2.08;;;1.00;;
24681;SDS011;12802;53.390;-2.328;2022-07-18T02:31:55;1.75;;;0.98;;
24681;SDS011;12802;53.390;-2.328;2022-07-18T02:34:21;1.80;;;1.13;;
24681;SDS011;12802;53.390;-2.328;2022-07-18T02:36:47;2.38;;;1.40;;
24681;SDS011;12802;53.390;-2.328;2022-07-18T02:39:15;2.03;;;1.30;;
24681;SDS011;12802;53.390;-2.328;2022-07-18T02:41:41;3.53;;;1.38;;
24681;SDS011;12802;53.390;-2.328;2022-07-18T02:44:07;2.50;;;1.23;;
24681;SDS011;12802;53.390;-2.328;2022-07-18T02:46:33;3.45;;;1.48;;
24681;SDS011;12802;53.390;-2.328;2022-07-18T02:48:59;1.98;;;1.08;;
24681;SDS011;12802;53.390;-2.328;2022-07-18T02:51:25;3.15;;;1.42;;
24681;SDS011;12802;53.390;-2.328;2022-07-18T02:53:51;5.20;;;1.67;;
24681;SDS011;12802;53.390;-2.328;2022-07-18T02:56:17;1.30;;;0.82;;
24681;SDS011;12802;53.390;-2.328;2022-07-18T02:58:43;5.25;;;1.30;;
24681;SDS011;12802;53.390;-2.328;2022-07-18T03:01:09;2.72;;;1.40;;
24681;SDS011;12802;53.390;-2.328;2022-07-18T03:03:34;2.53;;;1.23;;
24681;SDS011;12802;53.390;-2.328;2022-07-18T03:06:00;2.53;;;1.67;;
24681;SDS011;12802;53.390;-2.328;2022-07-18T03:08:26;2.58;;;0.98;;
24681;SDS011;12802;53.390;-2.328;2022-07-18T03:10:52;3.88;;;1.35;;
24681;SDS011;12802;53.390;-2.328;2022-07-18T03:13:17;2.05;;;1.10;;
24681;SDS011;12802;53.390;-2.328;2022-07-18T03:15:43;2.38;;;1.10;;
24681;SDS011;12802;53.390;-2.328;2022-07-18T03:18:09;5.25;;;1.80;;
24681;SDS011;12802;53.390;-2.328;2022-07-18T03:20:35;4.72;;;1.38;;
24681;SDS011;12802;53.390;-2.328;2022-07-18T03:23:06;2.80;;;1.52;;
24681;SDS011;12802;53.390;-2.328;2022-07-18T03:25:33;2.35;;;1.63;;
24681;SDS011;12802;53.390;-2.328;2022-07-18T03:27:59;3.20;;;1.75;;
24681;SDS011;12802;53.390;-2.328;2022-07-18T03:30:25;3.40;;;1.90;;
24681;SDS011;12802;53.390;-2.328;2022-07-18T03:32:51;2.15;;;1.67;;
24681;SDS011;12802;53.390;-2.328;2022-07-18T03:35:17;4.38;;;1.70;;
24681;SDS011;12802;53.390;-2.328;2022-07-18T03:37:42;2.58;;;1.60;;
24681;SDS011;12802;53.390;-2.328;2022-07-18T03:40:09;4.05;;;2.13;;
24681;SDS011;12802;53.390;-2.328;2022-07-18T03:42:41;3.67;;;1.70;;
24681;SDS011;12802;53.390;-2.328;2022-07-18T03:45:07;2.80;;;1.58;;
24681;SDS011;12802;53.390;-2.328;2022-07-18T03:47:34;5.80;;;1.85;;
24681;SDS011;12802;53.390;-2.328;2022-07-18T03:50:00;4.05;;;1.77;;
24681;SDS011;12802;53.390;-2.328;2022-07-18T03:52:26;5.25;;;1.65;;
24681;SDS011;12802;53.390;-2.328;2022-07-18T03:54:52;3.00;;;1.58;;
24681;SDS011;12802;53.390;-2.328;2022-07-18T03:57:18;3.47;;;1.25;;
24681;SDS011;12802;53.390;-2.328;2022-07-18T03:59:44;2.08;;;1.33;;
24681;SDS011;12802;53.390;-2.328;2022-07-18T04:02:09;3.30;;;1.85;;
24681;SDS011;12802;53.390;-2.328;2022-07-18T04:04:35;4.38;;;1.98;;
24681;SDS011;12802;53.390;-2.328;2022-07-18T04:07:01;3.92;;;2.00;;
24681;SDS011;12802;53.390;-2.328;2022-07-18T04:09:28;2.42;;;1.25;;
24681;SDS011;12802;53.390;-2.328;2022-07-18T04:11:54;4.63;;;1.98;;
24681;SDS011;12802;53.390;-2.328;2022-07-18T04:14:20;6.00;;;1.88;;
24681;SDS011;12802;53.390;-2.328;2022-07-18T04:16:48;3.65;;;1.70;;
24681;SDS011;12802;53.390;-2.328;2022-07-18T04:19:14;3.15;;;1.45;;
24681;SDS011;12802;53.390;-2.328;2022-07-18T04:21:39;2.35;;;1.30;;
24681;SDS011;12802;53.390;-2.328;2022-07-18T04:24:05;3.13;;;1.90;;
24681;SDS011;12802;53.390;-2.328;2022-07-18T04:26:31;3.88;;;1.67;;
24681;SDS011;12802;53.390;-2.328;2022-07-18T04:28:57;6.18;;;2.03;;
24681;SDS011;12802;53.390;-2.328;2022-07-18T04:31:22;2.60;;;1.63;;
24681;SDS011;12802;53.390;-2.328;2022-07-18T04:33:48;2.13;;;1.70;;
24681;SDS011;12802;53.390;-2.328;2022-07-18T04:36:14;5.60;;;2.10;;
24681;SDS011;12802;53.390;-2.328;2022-07-18T04:38:40;2.05;;;1.67;;
24681;SDS011;12802;53.390;-2.328;2022-07-18T04:41:06;4.47;;;2.28;;
24681;SDS011;12802;53.390;-2.328;2022-07-18T04:43:32;2.83;;;1.65;;
24681;SDS011;12802;53.390;-2.328;2022-07-18T04:45:58;4.18;;;1.77;;
24681;SDS011;12802;53.390;-2.328;2022-07-18T04:48:24;6.32;;;2.67;;
24681;SDS011;12802;53.390;-2.328;2022-07-18T04:50:50;2.88;;;1.50;;
24681;SDS011;12802;53.390;-2.328;2022-07-18T04:53:16;4.35;;;1.92;;
24681;SDS011;12802;53.390;-2.328;2022-07-18T04:55:42;7.72;;;1.70;;
24681;SDS011;12802;53.390;-2.328;2022-07-18T04:58:08;3.80;;;1.77;;
24681;SDS011;12802;53.390;-2.328;2022-07-18T05:00:34;3.22;;;1.70;;
24681;SDS011;12802;53.390;-2.328;2022-07-18T05:03:00;4.38;;;1.55;;
24681;SDS011;12802;53.390;-2.328;2022-07-18T05:05:26;4.40;;;1.92;;
24681;SDS011;12802;53.390;-2.328;2022-07-18T05:07:53;3.53;;;1.98;;
24681;SDS011;12802;53.390;-2.328;2022-07-18T05:10:20;2.83;;;1.48;;
24681;SDS011;12802;53.390;-2.328;2022-07-18T05:12:49;4.70;;;1.75;;
24681;SDS011;12802;53.390;-2.328;2022-07-18T05:15:17;3.80;;;2.08;;
24681;SDS011;12802;53.390;-2.328;2022-07-18T05:17:44;5.55;;;1.95;;
24681;SDS011;12802;53.390;-2.328;2022-07-18T05:20:11;4.07;;;1.88;;
24681;SDS011;12802;53.390;-2.328;2022-07-18T05:22:39;4.32;;;2.28;;
24681;SDS011;12802;53.390;-2.328;2022-07-18T05:25:05;4.65;;;1.77;;
24681;SDS011;12802;53.390;-2.328;2022-07-18T05:27:32;3.72;;;1.70;;
24681;SDS011;12802;53.390;-2.328;2022-07-18T05:29:58;4.35;;;1.65;;
24681;SDS011;12802;53.390;-2.328;2022-07-18T05:32:27;3.45;;;1.60;;
24681;SDS011;12802;53.390;-2.328;2022-07-18T05:34:53;3.85;;;1.88;;
24681;SDS011;12802;53.390;-2.328;2022-07-18T05:37:19;3.03;;;1.90;;
24681;SDS011;12802;53.390;-2.328;2022-07-18T05:39:45;6.32;;;1.92;;
24681;SDS011;12802;53.390;-2.328;2022-07-18T05:42:11;2.58;;;1.83;;
24681;SDS011;12802;53.390;-2.328;2022-07-18T05:44:37;6.07;;;2.17;;
24681;SDS011;12802;53.390;-2.328;2022-07-18T05:47:03;2.13;;;1.58;;
24681;SDS011;12802;53.390;-2.328;2022-07-18T05:49:29;5.13;;;2.13;;
24681;SDS011;12802;53.390;-2.328;2022-07-18T05:51:54;4.28;;;2.25;;
24681;SDS011;12802;53.390;-2.328;2022-07-18T05:54:20;4.60;;;1.85;;
24681;SDS011;12802;53.390;-2.328;2022-07-18T05:56:47;3.95;;;1.95;;
24681;SDS011;12802;53.390;-2.328;2022-07-18T05:59:14;5.00;;;1.20;;
24681;SDS011;12802;53.390;-2.328;2022-07-18T06:01:40;2.70;;;1.05;;
24681;SDS011;12802;53.390;-2.328;2022-07-18T06:04:05;2.92;;;1.95;;
24681;SDS011;12802;53.390;-2.328;2022-07-18T06:06:31;5.72;;;2.10;;
24681;SDS011;12802;53.390;-2.328;2022-07-18T06:08:57;5.25;;;2.38;;
24681;SDS011;12802;53.390;-2.328;2022-07-18T06:11:23;3.33;;;2.05;;
24681;SDS011;12802;53.390;-2.328;2022-07-18T06:13:49;5.28;;;1.65;;
24681;SDS011;12802;53.390;-2.328;2022-07-18T06:16:15;4.00;;;1.95;;
24681;SDS011;12802;53.390;-2.328;2022-07-18T06:18:41;3.42;;;2.05;;
24681;SDS011;12802;53.390;-2.328;2022-07-18T06:21:07;3.15;;;1.80;;
24681;SDS011;12802;53.390;-2.328;2022-07-18T06:23:32;3.45;;;1.88;;
24681;SDS011;12802;53.390;-2.328;2022-07-18T06:26:01;3.13;;;2.05;;
24681;SDS011;12802;53.390;-2.328;2022-07-18T06:28:27;3.67;;;1.98;;
24681;SDS011;12802;53.390;-2.328;2022-07-18T06:30:53;3.45;;;2.08;;
24681;SDS011;12802;53.390;-2.328;2022-07-18T06:33:20;5.55;;;2.38;;
24681;SDS011;12802;53.390;-2.328;2022-07-18T06:35:46;4.10;;;1.83;;
24681;SDS011;12802;53.390;-2.328;2022-07-18T06:38:12;2.65;;;1.58;;
24681;SDS011;12802;53.390;-2.328;2022-07-18T06:40:39;4.47;;;2.40;;
24681;SDS011;12802;53.390;-2.328;2022-07-18T06:43:04;3.35;;;2.03;;
24681;SDS011;12802;53.390;-2.328;2022-07-18T06:45:31;5.10;;;1.95;;
24681;SDS011;12802;53.390;-2.328;2022-07-18T06:47:57;4.63;;;1.55;;
24681;SDS011;12802;53.390;-2.328;2022-07-18T06:50:24;7.15;;;1.98;;
24681;SDS011;12802;53.390;-2.328;2022-07-18T06:52:50;3.42;;;1.77;;
24681;SDS011;12802;53.390;-2.328;2022-07-18T06:55:16;4.13;;;2.08;;
24681;SDS011;12802;53.390;-2.328;2022-07-18T06:57:42;6.15;;;2.38;;
24681;SDS011;12802;53.390;-2.328;2022-07-18T07:00:09;3.75;;;1.60;;
24681;SDS011;12802;53.390;-2.328;2022-07-18T07:02:40;2.90;;;1.60;;
24681;SDS011;12802;53.390;-2.328;2022-07-18T07:05:10;4.78;;;2.13;;
24681;SDS011;12802;53.390;-2.328;2022-07-18T07:07:36;5.05;;;1.85;;
24681;SDS011;12802;53.390;-2.328;2022-07-18T07:10:03;3.63;;;1.77;;
24681;SDS011;12802;53.390;-2.328;2022-07-18T07:12:29;4.35;;;2.35;;
24681;SDS011;12802;53.390;-2.328;2022-07-18T07:14:55;2.95;;;1.58;;
24681;SDS011;12802;53.390;-2.328;2022-07-18T07:17:21;5.90;;;2.55;;
24681;SDS011;12802;53.390;-2.328;2022-07-18T07:19:47;7.47;;;2.50;;
24681;SDS011;12802;53.390;-2.328;2022-07-18T07:22:12;4.95;;;2.08;;
24681;SDS011;12802;53.390;-2.328;2022-07-18T07:24:38;2.38;;;1.65;;
24681;SDS011;12802;53.390;-2.328;2022-07-18T07:27:05;4.70;;;2.10;;
24681;SDS011;12802;53.390;-2.328;2022-07-18T07:29:31;9.07;;;2.53;;
24681;SDS011;12802;53.390;-2.328;2022-07-18T07:31:57;5.20;;;2.13;;
24681;SDS011;12802;53.390;-2.328;2022-07-18T07:34:22;6.85;;;2.45;;
24681;SDS011;12802;53.390;-2.328;2022-07-18T07:36:48;5.47;;;2.00;;
24681;SDS011;12802;53.390;-2.328;2022-07-18T07:39:14;4.90;;;1.63;;
24681;SDS011;12802;53.390;-2.328;2022-07-18T07:41:40;3.67;;;1.85;;
24681;SDS011;12802;53.390;-2.328;2022-07-18T07:44:06;2.92;;;1.55;;
24681;SDS011;12802;53.390;-2.328;2022-07-18T07:46:31;6.88;;;2.08;;
24681;SDS011;12802;53.390;-2.328;2022-07-18T07:48:57;3.78;;;1.88;;
24681;SDS011;12802;53.390;-2.328;2022-07-18T07:51:23;8.70;;;2.35;;
24681;SDS011;12802;53.390;-2.328;2022-07-18T07:53:49;3.30;;;2.10;;
24681;SDS011;12802;53.390;-2.328;2022-07-18T07:56:15;4.63;;;1.95;;
24681;SDS011;12802;53.390;-2.328;2022-07-18T07:58:44;6.63;;;1.87;;
24681;SDS011;12802;53.390;-2.328;2022-07-18T08:01:10;7.20;;;1.98;;
24681;SDS011;12802;53.390;-2.328;2022-07-18T08:03:37;4.07;;;2.10;;
24681;SDS011;12802;53.390;-2.328;2022-07-18T08:06:03;5.80;;;2.00;;
24681;SDS011;12802;53.390;-2.328;2022-07-18T08:08:29;4.65;;;2.08;;
24681;SDS011;12802;53.390;-2.328;2022-07-18T08:10:55;3.95;;;2.03;;
24681;SDS011;12802;53.390;-2.328;2022-07-18T08:13:21;7.65;;;2.50;;
24681;SDS011;12802;53.390;-2.328;2022-07-18T08:15:47;2.67;;;1.55;;
24681;SDS011;12802;53.390;-2.328;2022-07-18T08:18:12;4.18;;;1.73;;
24681;SDS011;12802;53.390;-2.328;2022-07-18T08:20:38;3.80;;;1.40;;
24681;SDS011;12802;53.390;-2.328;2022-07-18T08:23:05;6.18;;;2.13;;
24681;SDS011;12802;53.390;-2.328;2022-07-18T08:25:34;4.80;;;1.85;;
24681;SDS011;12802;53.390;-2.328;2022-07-18T08:28:02;7.75;;;2.10;;
24681;SDS011;12802;53.390;-2.328;2022-07-18T08:30:29;6.00;;;2.35;;
24681;SDS011;12802;53.390;-2.328;2022-07-18T08:32:56;4.18;;;2.10;;
24681;SDS011;12802;53.390;-2.328;2022-07-18T08:35:23;3.38;;;1.48;;
24681;SDS011;12802;53.390;-2.328;2022-07-18T08:37:49;2.10;;;1.45;;
24681;SDS011;12802;53.390;-2.328;2022-07-18T08:40:15;3.72;;;1.40;;
24681;SDS011;12802;53.390;-2.328;2022-07-18T08:42:41;2.97;;;1.80;;
24681;SDS011;12802;53.390;-2.328;2022-07-18T08:45:07;2.53;;;1.50;;
24681;SDS011;12802;53.390;-2.328;2022-07-18T08:47:33;2.35;;;1.15;;
24681;SDS011;12802;53.390;-2.328;2022-07-18T08:49:59;6.32;;;1.65;;
24681;SDS011;12802;53.390;-2.328;2022-07-18T08:52:27;5.82;;;2.35;;
24681;SDS011;12802;53.390;-2.328;2022-07-18T08:54:54;9.57;;;1.33;;
24681;SDS011;12802;53.390;-2.328;2022-07-18T08:57:21;6.45;;;1.60;;
24681;SDS011;12802;53.390;-2.328;2022-07-18T08:59:48;3.42;;;1.60;;
24681;SDS011;12802;53.390;-2.328;2022-07-18T09:02:14;3.78;;;1.40;;
24681;SDS011;12802;53.390;-2.328;2022-07-18T09:04:40;2.75;;;1.35;;
24681;SDS011;12802;53.390;-2.328;2022-07-18T09:07:07;7.75;;;1.88;;
24681;SDS011;12802;53.390;-2.328;2022-07-18T09:09:35;3.38;;;1.45;;
24681;SDS011;12802;53.390;-2.328;2022-07-18T09:12:03;4.07;;;1.73;;
24681;SDS011;12802;53.390;-2.328;2022-07-18T09:14:32;3.17;;;1.13;;
24681;SDS011;12802;53.390;-2.328;2022-07-18T09:17:06;4.93;;;1.67;;
24681;SDS011;12802;53.390;-2.328;2022-07-18T09:19:32;5.03;;;1.90;;
24681;SDS011;12802;53.390;-2.328;2022-07-18T09:22:20;1.75;;;1.27;;
24681;SDS011;12802;53.390;-2.328;2022-07-18T09:35:35;3.65;;;1.58;;
24681;SDS011;12802;53.390;-2.328;2022-07-18T09:38:17;6.35;;;1.83;;
24681;SDS011;12802;53.390;-2.328;2022-07-18T09:40:52;2.05;;;0.93;;
24681;SDS011;12802;53.390;-2.328;2022-07-18T09:43:19;4.20;;;1.42;;
24681;SDS011;12802;53.390;-2.328;2022-07-18T09:45:48;1.95;;;1.27;;
24681;SDS011;12802;53.390;-2.328;2022-07-18T09:48:22;3.03;;;1.30;;
24681;SDS011;12802;53.390;-2.328;2022-07-18T09:53:27;4.30;;;1.23;;
24681;SDS011;12802;53.390;-2.328;2022-07-18T09:55:57;2.38;;;1.23;;
24681;SDS011;12802;53.390;-2.328;2022-07-18T09:58:50;2.08;;;0.90;;
24681;SDS011;12802;53.390;-2.328;2022-07-18T10:01:17;7.50;;;1.50;;
24681;SDS011;12802;53.390;-2.328;2022-07-18T10:03:43;2.35;;;1.10;;
24681;SDS011;12802;53.390;-2.328;2022-07-18T10:06:09;2.83;;;1.35;;
24681;SDS011;12802;53.390;-2.328;2022-07-18T10:08:36;4.22;;;1.58;;
24681;SDS011;12802;53.390;-2.328;2022-07-18T10:11:04;3.05;;;1.65;;
24681;SDS011;12802;53.390;-2.328;2022-07-18T10:13:31;6.75;;;2.10;;
24681;SDS011;12802;53.390;-2.328;2022-07-18T10:15:59;1.35;;;1.00;;
24681;SDS011;12802;53.390;-2.328;2022-07-18T10:18:26;2.83;;;1.23;;
24681;SDS011;12802;53.390;-2.328;2022-07-18T10:20:56;4.32;;;1.20;;
24681;SDS011;12802;53.390;-2.328;2022-07-18T10:26:17;2.88;;;1.33;;
24681;SDS011;12802;53.390;-2.328;2022-07-18T10:31:28;3.15;;;1.15;;
24681;SDS011;12802;53.390;-2.328;2022-07-18T10:34:13;1.77;;;1.08;;
24681;SDS011;12802;53.390;-2.328;2022-07-18T10:39:18;4.80;;;1.50;;
24681;SDS011;12802;53.390;-2.328;2022-07-18T11:00:25;3.78;;;1.67;;
24681;SDS011;12802;53.390;-2.328;2022-07-18T11:19:17;2.13;;;1.30;;
24681;SDS011;12802;53.390;-2.328;2022-07-18T11:21:21;1.57;;;0.70;;
24681;SDS011;12802;53.390;-2.328;2022-07-18T11:23:53;3.25;;;1.00;;
24681;SDS011;12802;53.390;-2.328;2022-07-18T11:26:20;5.65;;;1.58;;
24681;SDS011;12802;53.390;-2.328;2022-07-18T11:28:47;5.20;;;0.98;;
24681;SDS011;12802;53.390;-2.328;2022-07-18T11:31:14;3.13;;;1.20;;
24681;SDS011;12802;53.390;-2.328;2022-07-18T11:33:44;1.58;;;0.98;;
24681;SDS011;12802;53.390;-2.328;2022-07-18T11:36:13;3.80;;;1.48;;
24681;SDS011;12802;53.390;-2.328;2022-07-18T11:38:50;1.58;;;0.88;;
24681;SDS011;12802;53.390;-2.328;2022-07-18T11:41:18;3.15;;;1.45;;
24681;SDS011;12802;53.390;-2.328;2022-07-18T11:43:45;2.17;;;0.90;;
24681;SDS011;12802;53.390;-2.328;2022-07-18T11:46:13;3.05;;;1.20;;
24681;SDS011;12802;53.390;-2.328;2022-07-18T11:48:41;2.75;;;1.20;;
24681;SDS011;12802;53.390;-2.328;2022-07-18T11:53:35;1.52;;;0.70;;
24681;SDS011;12802;53.390;-2.328;2022-07-18T11:56:04;2.03;;;0.52;;
24681;SDS011;12802;53.390;-2.328;2022-07-18T12:01:04;11.95;;;1.13;;
24681;SDS011;12802;53.390;-2.328;2022-07-18T12:03:30;1.20;;;0.80;;
24681;SDS011;12802;53.390;-2.328;2022-07-18T12:05:58;1.17;;;0.70;;
24681;SDS011;12802;53.390;-2.328;2022-07-18T12:08:35;2.00;;;1.00;;
24681;SDS011;12802;53.390;-2.328;2022-07-18T12:18:59;6.75;;;0.85;;
24681;SDS011;12802;53.390;-2.328;2022-07-18T12:22:16;1.80;;;1.00;;
24681;SDS011;12802;53.390;-2.328;2022-07-18T12:30:03;5.10;;;0.77;;
24681;SDS011;12802;53.390;-2.328;2022-07-18T12:32:52;1.70;;;0.80;;
24681;SDS011;12802;53.390;-2.328;2022-07-18T12:35:31;1.42;;;0.95;;
24681;SDS011;12802;53.390;-2.328;2022-07-18T12:38:01;3.15;;;1.00;;
24681;SDS011;12802;53.390;-2.328;2022-07-18T12:43:12;1.67;;;1.02;;
24681;SDS011;12802;53.390;-2.328;2022-07-18T12:45:38;2.47;;;0.93;;
24681;SDS011;12802;53.390;-2.328;2022-07-18T12:48:06;5.93;;;1.38;;
24681;SDS011;12802;53.390;-2.328;2022-07-18T12:50:33;1.53;;;0.73;;
24681;SDS011;12802;53.390;-2.328;2022-07-18T12:53:00;1.88;;;0.80;;
24681;SDS011;12802;53.390;-2.328;2022-07-18T12:55:26;2.42;;;0.60;;
24681;SDS011;12802;53.390;-2.328;2022-07-18T12:57:52;2.45;;;0.85;;
24681;SDS011;12802;53.390;-2.328;2022-07-18T13:00:18;1.73;;;0.60;;
24681;SDS011;12802;53.390;-2.328;2022-07-18T13:02:45;1.63;;;0.82;;
24681;SDS011;12802;53.390;-2.328;2022-07-18T13:05:11;5.78;;;0.77;;
24681;SDS011;12802;53.390;-2.328;2022-07-18T13:07:37;1.42;;;0.68;;
24681;SDS011;12802;53.390;-2.328;2022-07-18T13:10:03;1.13;;;0.63;;
24681;SDS011;12802;53.390;-2.328;2022-07-18T13:12:30;3.03;;;1.00;;
24681;SDS011;12802;53.390;-2.328;2022-07-18T13:14:56;4.55;;;0.93;;
24681;SDS011;12802;53.390;-2.328;2022-07-18T13:17:22;1.90;;;0.77;;
24681;SDS011;12802;53.390;-2.328;2022-07-18T13:19:48;2.30;;;1.08;;
24681;SDS011;12802;53.390;-2.328;2022-07-18T13:22:15;2.22;;;1.02;;
24681;SDS011;12802;53.390;-2.328;2022-07-18T13:24:41;2.58;;;1.00;;
24681;SDS011;12802;53.390;-2.328;2022-07-18T13:27:07;1.58;;;0.73;;
24681;SDS011;12802;53.390;-2.328;2022-07-18T13:29:33;1.98;;;0.65;;
24681;SDS011;12802;53.390;-2.328;2022-07-18T13:31:59;1.92;;;0.80;;
24681;SDS011;12802;53.390;-2.328;2022-07-18T13:34:26;0.90;;;0.70;;
24681;SDS011;12802;53.390;-2.328;2022-07-18T13:36:52;1.50;;;0.70;;
24681;SDS011;12802;53.390;-2.328;2022-07-18T13:39:19;1.63;;;0.77;;
24681;SDS011;12802;53.390;-2.328;2022-07-18T13:41:45;4.40;;;1.05;;
24681;SDS011;12802;53.390;-2.328;2022-07-18T13:44:12;2.17;;;0.90;;
24681;SDS011;12802;53.390;-2.328;2022-07-18T13:46:38;1.52;;;0.85;;
24681;SDS011;12802;53.390;-2.328;2022-07-18T13:49:11;2.05;;;0.80;;
24681;SDS011;12802;53.390;-2.328;2022-07-18T13:51:38;3.45;;;0.90;;
24681;SDS011;12802;53.390;-2.328;2022-07-18T13:54:04;7.35;;;1.25;;
24681;SDS011;12802;53.390;-2.328;2022-07-18T13:56:31;1.85;;;1.00;;
24681;SDS011;12802;53.390;-2.328;2022-07-18T13:58:57;2.83;;;0.82;;
24681;SDS011;12802;53.390;-2.328;2022-07-18T14:01:23;1.90;;;0.77;;
24681;SDS011;12802;53.390;-2.328;2022-07-18T14:03:49;6.95;;;0.65;;
24681;SDS011;12802;53.390;-2.328;2022-07-18T14:06:15;1.27;;;0.70;;
24681;SDS011;12802;53.390;-2.328;2022-07-18T14:08:41;7.38;;;0.90;;
24681;SDS011;12802;53.390;-2.328;2022-07-18T14:11:07;1.45;;;0.80;;
24681;SDS011;12802;53.390;-2.328;2022-07-18T14:13:33;2.25;;;0.65;;
24681;SDS011;12802;53.390;-2.328;2022-07-18T14:15:58;1.10;;;0.65;;
24681;SDS011;12802;53.390;-2.328;2022-07-18T14:18:24;2.90;;;1.05;;
24681;SDS011;12802;53.390;-2.328;2022-07-18T14:20:50;2.30;;;0.65;;
24681;SDS011;12802;53.390;-2.328;2022-07-18T14:23:16;2.83;;;1.08;;
24681;SDS011;12802;53.390;-2.328;2022-07-18T14:25:42;2.00;;;0.70;;
24681;SDS011;12802;53.390;-2.328;2022-07-18T14:28:08;1.33;;;0.63;;
24681;SDS011;12802;53.390;-2.328;2022-07-18T14:30:33;2.25;;;0.60;;
24681;SDS011;12802;53.390;-2.328;2022-07-18T14:32:59;2.13;;;1.25;;
24681;SDS011;12802;53.390;-2.328;2022-07-18T14:35:25;3.28;;;0.50;;
24681;SDS011;12802;53.390;-2.328;2022-07-18T14:37:51;1.70;;;0.52;;
24681;SDS011;12802;53.390;-2.328;2022-07-18T14:40:17;2.53;;;0.70;;
24681;SDS011;12802;53.390;-2.328;2022-07-18T14:42:43;3.15;;;1.10;;
24681;SDS011;12802;53.390;-2.328;2022-07-18T14:45:09;7.00;;;1.20;;
24681;SDS011;12802;53.390;-2.328;2022-07-18T14:47:35;1.00;;;0.80;;
24681;SDS011;12802;53.390;-2.328;2022-07-18T14:50:02;2.53;;;1.00;;
24681;SDS011;12802;53.390;-2.328;2022-07-18T14:52:29;4.68;;;0.70;;
24681;SDS011;12802;53.390;-2.328;2022-07-18T14:54:55;4.38;;;1.20;;
24681;SDS011;12802;53.390;-2.328;2022-07-18T14:57:21;1.92;;;0.80;;
24681;SDS011;12802;53.390;-2.328;2022-07-18T14:59:47;2.25;;;0.93;;
24681;SDS011;12802;53.390;-2.328;2022-07-18T15:02:13;2.28;;;0.90;;
24681;SDS011;12802;53.390;-2.328;2022-07-18T15:04:39;2.20;;;0.80;;
24681;SDS011;12802;53.390;-2.328;2022-07-18T15:07:06;0.95;;;0.68;;
24681;SDS011;12802;53.390;-2.328;2022-07-18T15:09:31;1.27;;;0.73;;
24681;SDS011;12802;53.390;-2.328;2022-07-18T15:11:57;1.42;;;0.50;;
24681;SDS011;12802;53.390;-2.328;2022-07-18T15:14:23;2.08;;;0.82;;
24681;SDS011;12802;53.390;-2.328;2022-07-18T15:16:49;3.15;;;1.00;;
24681;SDS011;12802;53.390;-2.328;2022-07-18T15:19:15;1.35;;;0.60;;
24681;SDS011;12802;53.390;-2.328;2022-07-18T15:21:41;1.63;;;0.77;;
24681;SDS011;12802;53.390;-2.328;2022-07-18T15:24:07;2.35;;;0.68;;
24681;SDS011;12802;53.390;-2.328;2022-07-18T15:26:33;1.38;;;0.85;;
24681;SDS011;12802;53.390;-2.328;2022-07-18T15:28:59;7.90;;;0.98;;
24681;SDS011;12802;53.390;-2.328;2022-07-18T15:31:26;0.95;;;0.47;;
24681;SDS011;12802;53.390;-2.328;2022-07-18T15:33:52;1.38;;;0.40;;
24681;SDS011;12802;53.390;-2.328;2022-07-18T15:36:17;2.47;;;0.47;;
24681;SDS011;12802;53.390;-2.328;2022-07-18T15:38:43;1.58;;;0.63;;
24681;SDS011;12802;53.390;-2.328;2022-07-18T15:41:10;1.02;;;0.60;;
24681;SDS011;12802;53.390;-2.328;2022-07-18T15:43:37;2.45;;;0.70;;
24681;SDS011;12802;53.390;-2.328;2022-07-18T15:46:04;2.47;;;0.82;;
24681;SDS011;12802;53.390;-2.328;2022-07-18T15:48:30;4.95;;;0.60;;